sensor_id;sensor_type;location;lat;lon;timestamp;P1;durP1;ratioP1;P2;durP2;ratioP2
60847;SDS011;46681;47.696;9.140;2022-10-13T00:00:44;7.37;;;5.33;;
60847;SDS011;46681;47.696;9.140;2022-10-13T00:03:13;6.10;;;5.50;;
60847;SDS011;46681;47.696;9.140;2022-10-13T00:05:40;5.80;;;5.00;;
60847;SDS011;46681;47.696;9.140;2022-10-13T00:08:07;5.67;;;5.17;;
60847;SDS011;46681;47.696;9.140;2022-10-13T00:10:34;6.20;;;5.33;;
60847;SDS011;46681;47.696;9.140;2022-10-13T00:13:05;6.10;;;5.40;;
60847;SDS011;46681;47.696;9.140;2022-10-13T00:15:38;5.80;;;5.30;;
60847;SDS011;46681;47.696;9.140;2022-10-13T00:18:07;5.93;;;5.33;;
60847;SDS011;46681;47.696;9.140;2022-10-13T00:20:35;8.13;;;5.90;;
60847;SDS011;46681;47.696;9.140;2022-10-13T00:23:05;8.17;;;5.50;;
60847;SDS011;46681;47.696;9.140;2022-10-13T00:25:32;7.10;;;5.27;;
60847;SDS011;46681;47.696;9.140;2022-10-13T00:27:57;5.57;;;5.03;;
60847;SDS011;46681;47.696;9.140;2022-10-13T00:30:24;6.63;;;5.67;;
60847;SDS011;46681;47.696;9.140;2022-10-13T00:32:50;6.93;;;5.37;;
60847;SDS011;46681;47.696;9.140;2022-10-13T00:35:16;5.93;;;5.30;;
60847;SDS011;46681;47.696;9.140;2022-10-13T00:37:42;6.73;;;6.00;;
60847;SDS011;46681;47.696;9.140;2022-10-13T00:40:11;6.17;;;5.20;;
60847;SDS011;46681;47.696;9.140;2022-10-13T00:42:40;6.83;;;5.20;;
60847;SDS011;46681;47.696;9.140;2022-10-13T00:45:18;6.00;;;5.40;;
60847;SDS011;46681;47.696;9.140;2022-10-13T00:47:55;6.43;;;5.83;;
60847;SDS011;46681;47.696;9.140;2022-10-13T00:50:35;6.97;;;5.50;;
60847;SDS011;46681;47.696;9.140;2022-10-13T00:53:05;9.47;;;5.60;;
60847;SDS011;46681;47.696;9.140;2022-10-13T00:55:35;5.57;;;4.90;;
60847;SDS011;46681;47.696;9.140;2022-10-13T00:58:04;6.57;;;5.53;;
60847;SDS011;46681;47.696;9.140;2022-10-13T01:00:34;7.00;;;6.13;;
60847;SDS011;46681;47.696;9.140;2022-10-13T01:03:01;8.37;;;5.63;;
60847;SDS011;46681;47.696;9.140;2022-10-13T01:05:27;6.60;;;6.00;;
60847;SDS011;46681;47.696;9.140;2022-10-13T01:07:56;8.50;;;6.40;;
60847;SDS011;46681;47.696;9.140;2022-10-13T01:18:19;5.90;;;5.13;;
60847;SDS011;46681;47.696;9.140;2022-10-13T01:29:29;9.47;;;5.47;;
60847;SDS011;46681;47.696;9.140;2022-10-13T01:40:58;6.53;;;5.93;;
60847;SDS011;46681;47.696;9.140;2022-10-13T01:43:34;5.97;;;5.40;;
60847;SDS011;46681;47.696;9.140;2022-10-13T01:46:35;6.83;;;6.17;;
60847;SDS011;46681;47.696;9.140;2022-10-13T01:49:06;6.13;;;5.50;;
60847;SDS011;46681;47.696;9.140;2022-10-13T01:51:38;6.30;;;5.70;;
60847;SDS011;46681;47.696;9.140;2022-10-13T01:54:05;6.17;;;5.60;;
60847;SDS011;46681;47.696;9.140;2022-10-13T01:56:31;6.70;;;5.47;;
60847;SDS011;46681;47.696;9.140;2022-10-13T01:58:59;5.83;;;5.23;;
60847;SDS011;46681;47.696;9.140;2022-10-13T02:04:46;6.90;;;5.87;;
60847;SDS011;46681;47.696;9.140;2022-10-13T02:08:14;6.30;;;5.67;;
60847;SDS011;46681;47.696;9.140;2022-10-13T02:13:13;8.63;;;6.50;;
60847;SDS011;46681;47.696;9.140;2022-10-13T02:15:43;7.47;;;5.63;;
60847;SDS011;46681;47.696;9.140;2022-10-13T02:18:16;5.77;;;4.93;;
60847;SDS011;46681;47.696;9.140;2022-10-13T02:20:46;7.27;;;5.83;;
60847;SDS011;46681;47.696;9.140;2022-10-13T02:23:14;7.77;;;6.50;;
60847;SDS011;46681;47.696;9.140;2022-10-13T02:25:42;8.50;;;5.70;;
60847;SDS011;46681;47.696;9.140;2022-10-13T02:28:12;5.77;;;5.13;;
60847;SDS011;46681;47.696;9.140;2022-10-13T02:30:40;6.63;;;5.53;;
60847;SDS011;46681;47.696;9.140;2022-10-13T02:33:07;7.13;;;5.03;;
60847;SDS011;46681;47.696;9.140;2022-10-13T02:35:36;9.00;;;5.50;;
60847;SDS011;46681;47.696;9.140;2022-10-13T02:38:01;6.90;;;5.10;;
60847;SDS011;46681;47.696;9.140;2022-10-13T02:40:29;8.67;;;6.07;;
60847;SDS011;46681;47.696;9.140;2022-10-13T02:42:55;8.50;;;5.80;;
60847;SDS011;46681;47.696;9.140;2022-10-13T02:45:21;6.20;;;5.57;;
60847;SDS011;46681;47.696;9.140;2022-10-13T02:47:48;6.57;;;5.53;;
60847;SDS011;46681;47.696;9.140;2022-10-13T02:50:15;7.50;;;5.57;;
60847;SDS011;46681;47.696;9.140;2022-10-13T02:52:43;7.60;;;6.03;;
60847;SDS011;46681;47.696;9.140;2022-10-13T02:55:12;7.87;;;5.43;;
60847;SDS011;46681;47.696;9.140;2022-10-13T02:57:40;8.43;;;6.00;;
60847;SDS011;46681;47.696;9.140;2022-10-13T03:00:06;7.07;;;5.80;;
60847;SDS011;46681;47.696;9.140;2022-10-13T03:02:33;7.90;;;5.70;;
60847;SDS011;46681;47.696;9.140;2022-10-13T03:05:00;5.57;;;5.07;;
60847;SDS011;46681;47.696;9.140;2022-10-13T03:07:25;5.67;;;5.17;;
60847;SDS011;46681;47.696;9.140;2022-10-13T03:09:52;6.40;;;5.70;;
60847;SDS011;46681;47.696;9.140;2022-10-13T03:12:18;7.97;;;5.50;;
60847;SDS011;46681;47.696;9.140;2022-10-13T03:14:43;7.80;;;5.60;;
60847;SDS011;46681;47.696;9.140;2022-10-13T03:17:10;6.33;;;5.20;;
60847;SDS011;46681;47.696;9.140;2022-10-13T03:19:36;5.70;;;5.20;;
60847;SDS011;46681;47.696;9.140;2022-10-13T03:22:02;6.30;;;5.70;;
60847;SDS011;46681;47.696;9.140;2022-10-13T03:24:27;6.53;;;5.17;;
60847;SDS011;46681;47.696;9.140;2022-10-13T03:26:53;7.67;;;5.47;;
60847;SDS011;46681;47.696;9.140;2022-10-13T03:29:18;7.23;;;5.67;;
60847;SDS011;46681;47.696;9.140;2022-10-13T03:31:48;5.93;;;5.20;;
60847;SDS011;46681;47.696;9.140;2022-10-13T03:34:17;6.50;;;5.77;;
60847;SDS011;46681;47.696;9.140;2022-10-13T03:36:42;6.47;;;5.47;;
60847;SDS011;46681;47.696;9.140;2022-10-13T03:39:09;7.13;;;5.50;;
60847;SDS011;46681;47.696;9.140;2022-10-13T03:41:36;8.03;;;5.40;;
60847;SDS011;46681;47.696;9.140;2022-10-13T03:44:01;5.73;;;5.20;;
60847;SDS011;46681;47.696;9.140;2022-10-13T03:46:29;5.97;;;5.30;;
60847;SDS011;46681;47.696;9.140;2022-10-13T03:48:56;6.33;;;5.70;;
60847;SDS011;46681;47.696;9.140;2022-10-13T03:51:23;5.97;;;4.90;;
60847;SDS011;46681;47.696;9.140;2022-10-13T03:53:51;6.67;;;5.30;;
60847;SDS011;46681;47.696;9.140;2022-10-13T03:56:18;8.17;;;5.80;;
60847;SDS011;46681;47.696;9.140;2022-10-13T03:58:48;6.10;;;5.20;;
60847;SDS011;46681;47.696;9.140;2022-10-13T04:01:16;5.53;;;4.73;;
60847;SDS011;46681;47.696;9.140;2022-10-13T04:03:42;7.90;;;5.57;;
60847;SDS011;46681;47.696;9.140;2022-10-13T04:06:08;6.53;;;5.37;;
60847;SDS011;46681;47.696;9.140;2022-10-13T04:08:35;7.23;;;5.07;;
60847;SDS011;46681;47.696;9.140;2022-10-13T04:11:03;7.60;;;5.57;;
60847;SDS011;46681;47.696;9.140;2022-10-13T04:13:31;5.97;;;5.37;;
60847;SDS011;46681;47.696;9.140;2022-10-13T04:16:05;7.57;;;5.67;;
60847;SDS011;46681;47.696;9.140;2022-10-13T04:18:39;5.27;;;4.77;;
60847;SDS011;46681;47.696;9.140;2022-10-13T04:21:08;5.63;;;5.03;;
60847;SDS011;46681;47.696;9.140;2022-10-13T04:23:35;7.37;;;5.73;;
60847;SDS011;46681;47.696;9.140;2022-10-13T04:26:02;6.43;;;5.70;;
60847;SDS011;46681;47.696;9.140;2022-10-13T04:28:29;6.40;;;5.80;;
60847;SDS011;46681;47.696;9.140;2022-10-13T04:30:54;6.77;;;5.13;;
60847;SDS011;46681;47.696;9.140;2022-10-13T04:33:24;8.03;;;5.80;;
60847;SDS011;46681;47.696;9.140;2022-10-13T04:35:49;5.67;;;4.90;;
60847;SDS011;46681;47.696;9.140;2022-10-13T04:38:15;7.37;;;5.83;;
60847;SDS011;46681;47.696;9.140;2022-10-13T04:40:42;9.03;;;5.50;;
60847;SDS011;46681;47.696;9.140;2022-10-13T04:43:09;7.17;;;6.07;;
60847;SDS011;46681;47.696;9.140;2022-10-13T04:45:39;6.27;;;5.70;;
60847;SDS011;46681;47.696;9.140;2022-10-13T04:48:06;6.90;;;5.20;;
60847;SDS011;46681;47.696;9.140;2022-10-13T04:50:39;5.80;;;5.13;;
60847;SDS011;46681;47.696;9.140;2022-10-13T04:53:05;8.43;;;4.63;;
60847;SDS011;46681;47.696;9.140;2022-10-13T04:55:33;5.97;;;5.37;;
60847;SDS011;46681;47.696;9.140;2022-10-13T04:58:02;5.87;;;4.93;;
60847;SDS011;46681;47.696;9.140;2022-10-13T05:00:29;6.43;;;4.70;;
60847;SDS011;46681;47.696;9.140;2022-10-13T05:02:55;6.90;;;4.90;;
60847;SDS011;46681;47.696;9.140;2022-10-13T05:05:25;5.27;;;4.77;;
60847;SDS011;46681;47.696;9.140;2022-10-13T05:07:53;6.67;;;5.27;;
60847;SDS011;46681;47.696;9.140;2022-10-13T05:10:23;5.27;;;4.50;;
60847;SDS011;46681;47.696;9.140;2022-10-13T05:12:53;5.50;;;4.83;;
60847;SDS011;46681;47.696;9.140;2022-10-13T05:15:27;7.77;;;5.40;;
60847;SDS011;46681;47.696;9.140;2022-10-13T05:17:53;6.53;;;4.33;;
60847;SDS011;46681;47.696;9.140;2022-10-13T05:20:21;5.47;;;4.70;;
60847;SDS011;46681;47.696;9.140;2022-10-13T05:22:48;6.90;;;5.10;;
60847;SDS011;46681;47.696;9.140;2022-10-13T05:25:14;7.13;;;4.67;;
60847;SDS011;46681;47.696;9.140;2022-10-13T05:27:41;5.53;;;5.00;;
60847;SDS011;46681;47.696;9.140;2022-10-13T05:30:08;5.43;;;4.57;;
60847;SDS011;46681;47.696;9.140;2022-10-13T05:32:37;6.37;;;5.03;;
60847;SDS011;46681;47.696;9.140;2022-10-13T05:35:02;7.33;;;4.93;;
60847;SDS011;46681;47.696;9.140;2022-10-13T05:37:32;11.50;;;5.17;;
60847;SDS011;46681;47.696;9.140;2022-10-13T05:40:01;7.90;;;5.50;;
60847;SDS011;46681;47.696;9.140;2022-10-13T05:42:31;6.47;;;5.37;;
60847;SDS011;46681;47.696;9.140;2022-10-13T05:45:01;5.63;;;5.07;;
60847;SDS011;46681;47.696;9.140;2022-10-13T05:47:31;7.73;;;5.27;;
60847;SDS011;46681;47.696;9.140;2022-10-13T05:49:58;7.20;;;5.23;;
60847;SDS011;46681;47.696;9.140;2022-10-13T05:52:25;6.03;;;4.93;;
60847;SDS011;46681;47.696;9.140;2022-10-13T05:54:55;5.87;;;5.07;;
60847;SDS011;46681;47.696;9.140;2022-10-13T05:57:31;6.60;;;5.00;;
60847;SDS011;46681;47.696;9.140;2022-10-13T06:00:06;6.80;;;5.30;;
60847;SDS011;46681;47.696;9.140;2022-10-13T06:02:40;6.83;;;5.07;;
60847;SDS011;46681;47.696;9.140;2022-10-13T06:05:19;5.83;;;5.03;;
60847;SDS011;46681;47.696;9.140;2022-10-13T06:07:50;7.53;;;5.20;;
60847;SDS011;46681;47.696;9.140;2022-10-13T06:10:20;10.30;;;5.37;;
60847;SDS011;46681;47.696;9.140;2022-10-13T06:12:49;7.70;;;5.53;;
60847;SDS011;46681;47.696;9.140;2022-10-13T06:15:17;5.97;;;5.33;;
60847;SDS011;46681;47.696;9.140;2022-10-13T06:17:44;5.97;;;5.23;;
60847;SDS011;46681;47.696;9.140;2022-10-13T06:20:14;9.60;;;5.70;;
60847;SDS011;46681;47.696;9.140;2022-10-13T06:22:42;7.40;;;5.67;;
60847;SDS011;46681;47.696;9.140;2022-10-13T06:25:09;8.43;;;5.70;;
60847;SDS011;46681;47.696;9.140;2022-10-13T06:27:35;8.57;;;5.97;;
60847;SDS011;46681;47.696;9.140;2022-10-13T06:30:10;7.60;;;5.50;;
60847;SDS011;46681;47.696;9.140;2022-10-13T06:32:40;7.00;;;5.70;;
60847;SDS011;46681;47.696;9.140;2022-10-13T06:35:07;6.03;;;5.43;;
60847;SDS011;46681;47.696;9.140;2022-10-13T06:37:35;9.40;;;5.87;;
60847;SDS011;46681;47.696;9.140;2022-10-13T06:40:02;7.17;;;5.47;;
60847;SDS011;46681;47.696;9.140;2022-10-13T06:42:31;9.17;;;6.10;;
60847;SDS011;46681;47.696;9.140;2022-10-13T06:44:57;6.20;;;5.43;;
60847;SDS011;46681;47.696;9.140;2022-10-13T06:47:25;9.10;;;5.50;;
60847;SDS011;46681;47.696;9.140;2022-10-13T06:49:51;8.20;;;6.00;;
60847;SDS011;46681;47.696;9.140;2022-10-13T06:52:22;6.57;;;5.43;;
60847;SDS011;46681;47.696;9.140;2022-10-13T06:54:52;6.67;;;5.90;;
60847;SDS011;46681;47.696;9.140;2022-10-13T06:57:19;9.80;;;5.90;;
60847;SDS011;46681;47.696;9.140;2022-10-13T06:59:46;8.27;;;6.07;;
60847;SDS011;46681;47.696;9.140;2022-10-13T07:02:14;10.73;;;5.80;;
60847;SDS011;46681;47.696;9.140;2022-10-13T07:04:45;8.60;;;5.70;;
60847;SDS011;46681;47.696;9.140;2022-10-13T07:07:13;6.53;;;5.83;;
60847;SDS011;46681;47.696;9.140;2022-10-13T07:09:42;9.13;;;6.03;;
60847;SDS011;46681;47.696;9.140;2022-10-13T07:12:12;10.57;;;6.50;;
60847;SDS011;46681;47.696;9.140;2022-10-13T07:14:39;7.73;;;6.40;;
60847;SDS011;46681;47.696;9.140;2022-10-13T07:17:06;6.63;;;5.70;;
60847;SDS011;46681;47.696;9.140;2022-10-13T07:19:35;7.83;;;6.77;;
60847;SDS011;46681;47.696;9.140;2022-10-13T07:22:04;8.73;;;5.77;;
60847;SDS011;46681;47.696;9.140;2022-10-13T07:24:30;6.63;;;6.03;;
60847;SDS011;46681;47.696;9.140;2022-10-13T07:26:56;8.63;;;6.17;;
60847;SDS011;46681;47.696;9.140;2022-10-13T07:29:25;8.20;;;6.80;;
60847;SDS011;46681;47.696;9.140;2022-10-13T07:31:53;10.00;;;6.00;;
60847;SDS011;46681;47.696;9.140;2022-10-13T07:34:18;10.87;;;6.77;;
60847;SDS011;46681;47.696;9.140;2022-10-13T07:36:48;7.00;;;6.30;;
60847;SDS011;46681;47.696;9.140;2022-10-13T07:39:14;9.60;;;5.93;;
60847;SDS011;46681;47.696;9.140;2022-10-13T07:41:41;8.87;;;6.63;;
60847;SDS011;46681;47.696;9.140;2022-10-13T07:44:06;9.27;;;6.30;;
60847;SDS011;46681;47.696;9.140;2022-10-13T07:46:35;8.10;;;6.77;;
60847;SDS011;46681;47.696;9.140;2022-10-13T07:49:02;7.50;;;6.70;;
60847;SDS011;46681;47.696;9.140;2022-10-13T07:51:31;10.87;;;7.03;;
60847;SDS011;46681;47.696;9.140;2022-10-13T07:54:01;7.90;;;7.10;;
60847;SDS011;46681;47.696;9.140;2022-10-13T07:56:30;8.63;;;6.80;;
60847;SDS011;46681;47.696;9.140;2022-10-13T07:59:02;6.77;;;6.10;;
60847;SDS011;46681;47.696;9.140;2022-10-13T08:01:36;7.80;;;6.40;;
60847;SDS011;46681;47.696;9.140;2022-10-13T08:04:01;8.33;;;6.83;;
60847;SDS011;46681;47.696;9.140;2022-10-13T08:06:28;16.73;;;9.10;;
60847;SDS011;46681;47.696;9.140;2022-10-13T08:08:56;9.67;;;7.37;;
60847;SDS011;46681;47.696;9.140;2022-10-13T08:11:26;8.50;;;6.70;;
60847;SDS011;46681;47.696;9.140;2022-10-13T08:13:54;9.33;;;8.07;;
60847;SDS011;46681;47.696;9.140;2022-10-13T08:16:23;11.67;;;7.07;;
60847;SDS011;46681;47.696;9.140;2022-10-13T08:18:49;8.37;;;7.00;;
60847;SDS011;46681;47.696;9.140;2022-10-13T08:21:19;8.90;;;7.87;;
60847;SDS011;46681;47.696;9.140;2022-10-13T08:23:47;10.27;;;8.40;;
60847;SDS011;46681;47.696;9.140;2022-10-13T08:26:31;10.27;;;8.83;;
60847;SDS011;46681;47.696;9.140;2022-10-13T08:28:58;10.67;;;8.13;;
60847;SDS011;46681;47.696;9.140;2022-10-13T08:31:25;8.80;;;7.97;;
60847;SDS011;46681;47.696;9.140;2022-10-13T08:33:51;8.37;;;7.57;;
60847;SDS011;46681;47.696;9.140;2022-10-13T08:36:16;15.03;;;8.13;;
60847;SDS011;46681;47.696;9.140;2022-10-13T08:38:45;8.97;;;8.00;;
60847;SDS011;46681;47.696;9.140;2022-10-13T08:41:16;11.23;;;7.90;;
60847;SDS011;46681;47.696;9.140;2022-10-13T08:43:48;9.60;;;7.73;;
60847;SDS011;46681;47.696;9.140;2022-10-13T08:46:27;12.47;;;9.07;;
60847;SDS011;46681;47.696;9.140;2022-10-13T08:49:03;10.00;;;8.47;;
60847;SDS011;46681;47.696;9.140;2022-10-13T08:51:32;12.73;;;9.80;;
60847;SDS011;46681;47.696;9.140;2022-10-13T08:53:58;10.47;;;8.37;;
60847;SDS011;46681;47.696;9.140;2022-10-13T08:56:32;12.13;;;9.00;;
60847;SDS011;46681;47.696;9.140;2022-10-13T08:59:03;9.70;;;7.13;;
60847;SDS011;46681;47.696;9.140;2022-10-13T09:01:35;12.87;;;9.73;;
60847;SDS011;46681;47.696;9.140;2022-10-13T09:06:35;9.53;;;7.70;;
60847;SDS011;46681;47.696;9.140;2022-10-13T09:09:17;6.83;;;6.13;;
60847;SDS011;46681;47.696;9.140;2022-10-13T09:11:46;8.47;;;6.93;;
60847;SDS011;46681;47.696;9.140;2022-10-13T09:16:51;13.13;;;9.43;;
60847;SDS011;46681;47.696;9.140;2022-10-13T09:19:30;9.87;;;8.43;;
60847;SDS011;46681;47.696;9.140;2022-10-13T09:22:22;9.23;;;7.67;;
60847;SDS011;46681;47.696;9.140;2022-10-13T09:25:00;11.07;;;8.50;;
60847;SDS011;46681;47.696;9.140;2022-10-13T09:27:53;14.63;;;9.50;;
60847;SDS011;46681;47.696;9.140;2022-10-13T09:33:27;11.40;;;8.63;;
60847;SDS011;46681;47.696;9.140;2022-10-13T09:35:49;13.63;;;8.30;;
60847;SDS011;46681;47.696;9.140;2022-10-13T09:38:31;9.37;;;8.40;;
60847;SDS011;46681;47.696;9.140;2022-10-13T09:48:40;13.03;;;9.73;;
60847;SDS011;46681;47.696;9.140;2022-10-13T09:54:43;11.13;;;9.67;;
60847;SDS011;46681;47.696;9.140;2022-10-13T09:57:04;10.57;;;9.47;;
60847;SDS011;46681;47.696;9.140;2022-10-13T09:59:45;12.57;;;9.33;;
60847;SDS011;46681;47.696;9.140;2022-10-13T10:02:52;9.50;;;8.17;;
60847;SDS011;46681;47.696;9.140;2022-10-13T10:05:49;9.53;;;8.60;;
60847;SDS011;46681;47.696;9.140;2022-10-13T10:08:25;12.30;;;7.90;;
60847;SDS011;46681;47.696;9.140;2022-10-13T10:11:09;10.23;;;7.47;;
60847;SDS011;46681;47.696;9.140;2022-10-13T10:14:26;7.73;;;6.73;;
60847;SDS011;46681;47.696;9.140;2022-10-13T10:20:19;7.07;;;6.17;;
60847;SDS011;46681;47.696;9.140;2022-10-13T10:22:55;7.80;;;6.60;;
60847;SDS011;46681;47.696;9.140;2022-10-13T10:25:55;6.27;;;5.67;;
60847;SDS011;46681;47.696;9.140;2022-10-13T10:45:53;12.03;;;8.53;;
60847;SDS011;46681;47.696;9.140;2022-10-13T10:48:37;10.80;;;8.43;;
60847;SDS011;46681;47.696;9.140;2022-10-13T10:51:19;9.20;;;7.60;;
60847;SDS011;46681;47.696;9.140;2022-10-13T10:57:00;8.77;;;7.63;;
60847;SDS011;46681;47.696;9.140;2022-10-13T10:59:54;8.70;;;7.30;;
60847;SDS011;46681;47.696;9.140;2022-10-13T11:05:59;9.90;;;7.63;;
60847;SDS011;46681;47.696;9.140;2022-10-13T11:08:48;11.80;;;8.73;;
60847;SDS011;46681;47.696;9.140;2022-10-13T11:14:02;11.00;;;9.10;;
60847;SDS011;46681;47.696;9.140;2022-10-13T11:19:33;8.03;;;7.17;;
60847;SDS011;46681;47.696;9.140;2022-10-13T11:22:12;8.93;;;6.37;;
60847;SDS011;46681;47.696;9.140;2022-10-13T11:24:48;7.17;;;6.53;;
60847;SDS011;46681;47.696;9.140;2022-10-13T11:30:00;7.33;;;6.60;;
60847;SDS011;46681;47.696;9.140;2022-10-13T11:43:28;7.40;;;6.50;;
60847;SDS011;46681;47.696;9.140;2022-10-13T11:49:14;7.00;;;5.53;;
60847;SDS011;46681;47.696;9.140;2022-10-13T11:52:02;6.57;;;5.93;;
60847;SDS011;46681;47.696;9.140;2022-10-13T11:55:01;7.03;;;5.37;;
60847;SDS011;46681;47.696;9.140;2022-10-13T11:57:41;7.23;;;6.17;;
60847;SDS011;46681;47.696;9.140;2022-10-13T12:00:15;7.43;;;5.77;;
60847;SDS011;46681;47.696;9.140;2022-10-13T12:02:53;6.67;;;5.10;;
60847;SDS011;46681;47.696;9.140;2022-10-13T12:05:25;5.80;;;5.20;;
60847;SDS011;46681;47.696;9.140;2022-10-13T12:08:02;6.23;;;5.33;;
60847;SDS011;46681;47.696;9.140;2022-10-13T12:10:32;6.47;;;5.60;;
60847;SDS011;46681;47.696;9.140;2022-10-13T12:13:03;6.03;;;5.43;;
60847;SDS011;46681;47.696;9.140;2022-10-13T12:15:30;6.03;;;5.00;;
60847;SDS011;46681;47.696;9.140;2022-10-13T12:18:21;7.00;;;5.63;;
60847;SDS011;46681;47.696;9.140;2022-10-13T12:21:17;5.80;;;5.17;;
60847;SDS011;46681;47.696;9.140;2022-10-13T12:23:46;6.03;;;5.27;;
60847;SDS011;46681;47.696;9.140;2022-10-13T12:26:17;8.17;;;5.70;;
60847;SDS011;46681;47.696;9.140;2022-10-13T12:28:55;7.50;;;5.33;;
60847;SDS011;46681;47.696;9.140;2022-10-13T12:31:44;5.80;;;5.23;;
60847;SDS011;46681;47.696;9.140;2022-10-13T12:34:31;6.53;;;5.43;;
60847;SDS011;46681;47.696;9.140;2022-10-13T12:39:24;6.30;;;5.63;;
60847;SDS011;46681;47.696;9.140;2022-10-13T12:41:56;7.67;;;4.90;;
60847;SDS011;46681;47.696;9.140;2022-10-13T12:44:28;5.57;;;5.00;;
60847;SDS011;46681;47.696;9.140;2022-10-13T12:46:59;6.80;;;5.60;;
60847;SDS011;46681;47.696;9.140;2022-10-13T12:49:31;7.07;;;5.03;;
60847;SDS011;46681;47.696;9.140;2022-10-13T12:52:11;7.73;;;5.53;;
60847;SDS011;46681;47.696;9.140;2022-10-13T12:54:46;5.47;;;4.97;;
60847;SDS011;46681;47.696;9.140;2022-10-13T12:57:30;6.57;;;4.90;;
60847;SDS011;46681;47.696;9.140;2022-10-13T13:00:00;11.37;;;6.27;;
60847;SDS011;46681;47.696;9.140;2022-10-13T13:02:33;6.03;;;5.20;;
60847;SDS011;46681;47.696;9.140;2022-10-13T13:05:00;7.70;;;4.83;;
60847;SDS011;46681;47.696;9.140;2022-10-13T13:07:34;8.10;;;5.30;;
60847;SDS011;46681;47.696;9.140;2022-10-13T13:10:18;7.43;;;5.10;;
60847;SDS011;46681;47.696;9.140;2022-10-13T13:12:49;6.30;;;5.67;;
60847;SDS011;46681;47.696;9.140;2022-10-13T13:20:59;6.33;;;5.70;;
60847;SDS011;46681;47.696;9.140;2022-10-13T13:23:29;5.63;;;5.10;;
60847;SDS011;46681;47.696;9.140;2022-10-13T13:28:53;7.43;;;4.90;;
60847;SDS011;46681;47.696;9.140;2022-10-13T13:31:24;8.33;;;4.93;;
60847;SDS011;46681;47.696;9.140;2022-10-13T13:33:55;7.87;;;4.87;;
60847;SDS011;46681;47.696;9.140;2022-10-13T13:36:23;7.03;;;5.50;;
60847;SDS011;46681;47.696;9.140;2022-10-13T13:38:52;7.30;;;4.40;;
60847;SDS011;46681;47.696;9.140;2022-10-13T13:41:23;5.17;;;4.50;;
60847;SDS011;46681;47.696;9.140;2022-10-13T13:43:48;7.73;;;5.97;;
60847;SDS011;46681;47.696;9.140;2022-10-13T13:46:21;5.57;;;5.07;;
60847;SDS011;46681;47.696;9.140;2022-10-13T13:48:49;8.53;;;6.00;;
60847;SDS011;46681;47.696;9.140;2022-10-13T13:51:18;6.13;;;4.93;;
60847;SDS011;46681;47.696;9.140;2022-10-13T13:53:51;6.00;;;5.07;;
60847;SDS011;46681;47.696;9.140;2022-10-13T13:56:21;8.43;;;5.27;;
60847;SDS011;46681;47.696;9.140;2022-10-13T13:58:50;9.73;;;6.57;;
60847;SDS011;46681;47.696;9.140;2022-10-13T14:01:23;7.20;;;6.50;;
60847;SDS011;46681;47.696;9.140;2022-10-13T14:03:50;8.57;;;5.93;;
60847;SDS011;46681;47.696;9.140;2022-10-13T14:06:21;6.20;;;5.53;;
60847;SDS011;46681;47.696;9.140;2022-10-13T14:08:49;8.87;;;6.33;;
60847;SDS011;46681;47.696;9.140;2022-10-13T14:11:15;5.53;;;5.00;;
60847;SDS011;46681;47.696;9.140;2022-10-13T14:13:46;15.30;;;5.13;;
60847;SDS011;46681;47.696;9.140;2022-10-13T14:16:14;5.73;;;4.40;;
60847;SDS011;46681;47.696;9.140;2022-10-13T14:18:43;7.17;;;5.67;;
60847;SDS011;46681;47.696;9.140;2022-10-13T14:21:09;7.17;;;5.73;;
60847;SDS011;46681;47.696;9.140;2022-10-13T14:23:41;6.97;;;5.73;;
60847;SDS011;46681;47.696;9.140;2022-10-13T14:26:12;9.57;;;4.97;;
60847;SDS011;46681;47.696;9.140;2022-10-13T14:28:41;6.07;;;5.47;;
60847;SDS011;46681;47.696;9.140;2022-10-13T14:31:13;7.93;;;4.87;;
60847;SDS011;46681;47.696;9.140;2022-10-13T14:33:40;7.17;;;5.37;;
60847;SDS011;46681;47.696;9.140;2022-10-13T14:36:09;10.30;;;5.93;;
60847;SDS011;46681;47.696;9.140;2022-10-13T14:38:38;8.47;;;5.37;;
60847;SDS011;46681;47.696;9.140;2022-10-13T14:41:05;8.87;;;5.50;;
60847;SDS011;46681;47.696;9.140;2022-10-13T14:43:34;9.17;;;6.20;;
60847;SDS011;46681;47.696;9.140;2022-10-13T14:46:04;8.03;;;5.73;;
60847;SDS011;46681;47.696;9.140;2022-10-13T14:48:31;7.40;;;5.50;;
60847;SDS011;46681;47.696;9.140;2022-10-13T14:51:08;6.33;;;5.73;;
60847;SDS011;46681;47.696;9.140;2022-10-13T14:53:37;10.73;;;5.70;;
60847;SDS011;46681;47.696;9.140;2022-10-13T14:56:16;8.50;;;5.67;;
60847;SDS011;46681;47.696;9.140;2022-10-13T14:58:55;8.77;;;5.60;;
60847;SDS011;46681;47.696;9.140;2022-10-13T15:01:27;14.23;;;6.57;;
60847;SDS011;46681;47.696;9.140;2022-10-13T15:04:09;9.43;;;5.80;;
60847;SDS011;46681;47.696;9.140;2022-10-13T15:06:35;8.37;;;5.33;;
60847;SDS011;46681;47.696;9.140;2022-10-13T15:09:16;9.73;;;5.43;;
60847;SDS011;46681;47.696;9.140;2022-10-13T15:11:51;7.20;;;5.07;;
60847;SDS011;46681;47.696;9.140;2022-10-13T15:14:30;7.70;;;5.43;;
60847;SDS011;46681;47.696;9.140;2022-10-13T15:16:57;8.73;;;5.47;;
60847;SDS011;46681;47.696;9.140;2022-10-13T15:19:23;8.60;;;5.10;;
60847;SDS011;46681;47.696;9.140;2022-10-13T15:21:51;7.20;;;5.40;;
60847;SDS011;46681;47.696;9.140;2022-10-13T15:24:19;7.07;;;6.37;;
60847;SDS011;46681;47.696;9.140;2022-10-13T15:26:51;7.73;;;4.87;;
60847;SDS011;46681;47.696;9.140;2022-10-13T15:29:18;9.47;;;6.40;;
60847;SDS011;46681;47.696;9.140;2022-10-13T15:31:45;9.63;;;6.20;;
60847;SDS011;46681;47.696;9.140;2022-10-13T15:34:16;6.90;;;6.20;;
60847;SDS011;46681;47.696;9.140;2022-10-13T15:36:44;6.43;;;5.77;;
60847;SDS011;46681;47.696;9.140;2022-10-13T15:39:11;8.43;;;6.20;;
60847;SDS011;46681;47.696;9.140;2022-10-13T15:41:54;8.70;;;6.07;;
60847;SDS011;46681;47.696;9.140;2022-10-13T15:44:24;9.33;;;5.70;;
60847;SDS011;46681;47.696;9.140;2022-10-13T15:46:58;7.60;;;5.60;;
60847;SDS011;46681;47.696;9.140;2022-10-13T15:49:26;7.17;;;5.17;;
60847;SDS011;46681;47.696;9.140;2022-10-13T15:51:56;7.23;;;5.53;;
60847;SDS011;46681;47.696;9.140;2022-10-13T15:54:23;7.70;;;5.20;;
60847;SDS011;46681;47.696;9.140;2022-10-13T15:56:51;10.30;;;6.27;;
60847;SDS011;46681;47.696;9.140;2022-10-13T15:59:19;8.53;;;5.60;;
60847;SDS011;46681;47.696;9.140;2022-10-13T16:01:45;8.50;;;5.53;;
60847;SDS011;46681;47.696;9.140;2022-10-13T16:04:14;11.27;;;6.20;;
60847;SDS011;46681;47.696;9.140;2022-10-13T16:06:42;7.67;;;6.13;;
60847;SDS011;46681;47.696;9.140;2022-10-13T16:09:10;8.53;;;5.80;;
60847;SDS011;46681;47.696;9.140;2022-10-13T16:11:36;10.83;;;5.97;;
60847;SDS011;46681;47.696;9.140;2022-10-13T16:14:03;6.03;;;5.30;;
60847;SDS011;46681;47.696;9.140;2022-10-13T16:16:39;5.47;;;4.97;;
60847;SDS011;46681;47.696;9.140;2022-10-13T16:19:07;6.43;;;5.83;;
60847;SDS011;46681;47.696;9.140;2022-10-13T16:21:36;6.03;;;5.43;;
60847;SDS011;46681;47.696;9.140;2022-10-13T16:24:02;6.23;;;5.63;;
60847;SDS011;46681;47.696;9.140;2022-10-13T16:26:33;6.07;;;5.20;;
60847;SDS011;46681;47.696;9.140;2022-10-13T16:29:01;8.60;;;5.67;;
60847;SDS011;46681;47.696;9.140;2022-10-13T16:31:29;6.50;;;4.77;;
60847;SDS011;46681;47.696;9.140;2022-10-13T16:33:55;7.70;;;5.37;;
60847;SDS011;46681;47.696;9.140;2022-10-13T16:36:21;6.77;;;5.67;;
60847;SDS011;46681;47.696;9.140;2022-10-13T16:38:50;5.80;;;5.30;;
60847;SDS011;46681;47.696;9.140;2022-10-13T16:41:21;6.83;;;5.23;;
60847;SDS011;46681;47.696;9.140;2022-10-13T16:43:48;9.57;;;5.80;;
60847;SDS011;46681;47.696;9.140;2022-10-13T16:46:15;6.60;;;5.60;;
60847;SDS011;46681;47.696;9.140;2022-10-13T16:48:46;9.67;;;5.20;;
60847;SDS011;46681;47.696;9.140;2022-10-13T16:51:18;5.33;;;4.83;;
60847;SDS011;46681;47.696;9.140;2022-10-13T16:53:47;6.77;;;5.00;;
60847;SDS011;46681;47.696;9.140;2022-10-13T16:56:16;5.70;;;5.17;;
60847;SDS011;46681;47.696;9.140;2022-10-13T16:58:45;7.60;;;5.40;;